sensor_id;sensor_type;location;lat;lon;timestamp;pressure;altitude;pressure_sealevel;temperature;humidity
44697;BME280;57264;47.480;19.354;2023-11-19T00:00:51;99667.16;;;2.35;77.06
44697;BME280;57264;47.480;19.354;2023-11-19T00:03:18;99672.63;;;2.32;76.78
44697;BME280;57264;47.480;19.354;2023-11-19T00:05:46;99671.69;;;2.24;77.33
44697;BME280;57264;47.480;19.354;2023-11-19T00:08:11;99664.84;;;2.32;77.36
44697;BME280;57264;47.480;19.354;2023-11-19T00:10:37;99668.78;;;2.37;76.82
44697;BME280;57264;47.480;19.354;2023-11-19T00:13:02;99671.75;;;2.42;76.94
44697;BME280;57264;47.480;19.354;2023-11-19T00:15:28;99657.34;;;2.29;77.18
44697;BME280;57264;47.480;19.354;2023-11-19T00:17:54;99654.09;;;2.27;77.46
44697;BME280;57264;47.480;19.354;2023-11-19T00:20:20;99654.84;;;2.38;77.83
44697;BME280;57264;47.480;19.354;2023-11-19T00:22:48;99661.34;;;2.51;76.81
44697;BME280;57264;47.480;19.354;2023-11-19T00:25:17;99655.66;;;2.65;77.01
44697;BME280;57264;47.480;19.354;2023-11-19T00:27:43;99649.31;;;2.60;76.60
44697;BME280;57264;47.480;19.354;2023-11-19T00:30:12;99661.44;;;2.59;76.93
44697;BME280;57264;47.480;19.354;2023-11-19T00:32:38;99663.75;;;2.62;76.72
44697;BME280;57264;47.480;19.354;2023-11-19T00:35:08;99661.03;;;2.81;76.37
44697;BME280;57264;47.480;19.354;2023-11-19T00:37:35;99670.31;;;2.84;76.11
44697;BME280;57264;47.480;19.354;2023-11-19T00:40:01;99664.63;;;2.80;76.05
44697;BME280;57264;47.480;19.354;2023-11-19T00:42:30;99661.63;;;2.75;75.83
44697;BME280;57264;47.480;19.354;2023-11-19T00:44:56;99654.34;;;2.89;75.85
44697;BME280;57264;47.480;19.354;2023-11-19T00:47:21;99661.44;;;2.87;75.80
44697;BME280;57264;47.480;19.354;2023-11-19T00:49:47;99667.28;;;2.89;75.34
44697;BME280;57264;47.480;19.354;2023-11-19T00:52:16;99653.25;;;2.81;75.64
44697;BME280;57264;47.480;19.354;2023-11-19T00:54:42;99654.78;;;3.02;75.04
44697;BME280;57264;47.480;19.354;2023-11-19T00:57:08;99654.78;;;3.02;74.58
44697;BME280;57264;47.480;19.354;2023-11-19T00:59:33;99652.63;;;2.97;74.21
44697;BME280;57264;47.480;19.354;2023-11-19T01:04:53;99650.06;;;2.70;74.42
44697;BME280;57264;47.480;19.354;2023-11-19T01:07:19;99652.31;;;2.55;74.34
44697;BME280;57264;47.480;19.354;2023-11-19T01:09:45;99645.72;;;2.43;75.49
44697;BME280;57264;47.480;19.354;2023-11-19T01:12:11;99644.66;;;2.36;75.75
44697;BME280;57264;47.480;19.354;2023-11-19T01:14:37;99654.03;;;2.37;76.08
44697;BME280;57264;47.480;19.354;2023-11-19T01:17:02;99649.22;;;2.24;76.22
44697;BME280;57264;47.480;19.354;2023-11-19T01:19:28;99663.03;;;2.06;75.73
44697;BME280;57264;47.480;19.354;2023-11-19T01:21:54;99658.78;;;2.05;76.00
44697;BME280;57264;47.480;19.354;2023-11-19T01:24:20;99656.78;;;1.89;76.30
44697;BME280;57264;47.480;19.354;2023-11-19T01:26:46;99652.31;;;1.81;76.74
44697;BME280;57264;47.480;19.354;2023-11-19T01:29:14;99652.59;;;1.69;77.01
44697;BME280;57264;47.480;19.354;2023-11-19T01:31:41;99649.75;;;1.72;77.03
44697;BME280;57264;47.480;19.354;2023-11-19T01:34:06;99650.31;;;1.66;77.51
44697;BME280;57264;47.480;19.354;2023-11-19T01:36:32;99648.16;;;1.52;77.90
44697;BME280;57264;47.480;19.354;2023-11-19T01:38:57;99639.69;;;1.50;77.09
44697;BME280;57264;47.480;19.354;2023-11-19T01:41:23;99639.28;;;1.45;78.23
44697;BME280;57264;47.480;19.354;2023-11-19T01:43:50;99638.47;;;1.54;78.27
44697;BME280;57264;47.480;19.354;2023-11-19T01:46:16;99631.13;;;1.49;78.36
44697;BME280;57264;47.480;19.354;2023-11-19T01:48:45;99637.41;;;1.47;78.53
44697;BME280;57264;47.480;19.354;2023-11-19T01:51:12;99640.50;;;1.40;78.59
44697;BME280;57264;47.480;19.354;2023-11-19T01:53:39;99636.97;;;1.41;78.24
44697;BME280;57264;47.480;19.354;2023-11-19T01:56:09;99639.16;;;1.36;78.74
44697;BME280;57264;47.480;19.354;2023-11-19T01:58:37;99633.75;;;1.20;78.84
44697;BME280;57264;47.480;19.354;2023-11-19T02:01:06;99626.94;;;1.19;78.83
44697;BME280;57264;47.480;19.354;2023-11-19T02:03:33;99622.06;;;1.16;79.10
44697;BME280;57264;47.480;19.354;2023-11-19T02:05:59;99618.25;;;1.20;79.31
44697;BME280;57264;47.480;19.354;2023-11-19T02:08:25;99615.91;;;1.27;79.49
44697;BME280;57264;47.480;19.354;2023-11-19T02:10:51;99604.75;;;1.26;79.50
44697;BME280;57264;47.480;19.354;2023-11-19T02:13:18;99604.91;;;0.96;80.88
44697;BME280;57264;47.480;19.354;2023-11-19T02:15:44;99606.91;;;0.92;82.05
44697;BME280;57264;47.480;19.354;2023-11-19T02:18:23;99612.78;;;1.04;82.27
44697;BME280;57264;47.480;19.354;2023-11-19T02:20:50;99610.59;;;1.09;81.85
44697;BME280;57264;47.480;19.354;2023-11-19T02:23:18;99616.84;;;1.26;80.75
44697;BME280;57264;47.480;19.354;2023-11-19T02:28:48;99619.00;;;0.73;82.60
44697;BME280;57264;47.480;19.354;2023-11-19T02:31:13;99608.81;;;0.90;82.62
44697;BME280;57264;47.480;19.354;2023-11-19T02:33:39;99609.50;;;0.92;82.59
44697;BME280;57264;47.480;19.354;2023-11-19T02:36:06;99604.63;;;0.99;82.53
44697;BME280;57264;47.480;19.354;2023-11-19T02:38:35;99597.81;;;0.79;82.70
44697;BME280;57264;47.480;19.354;2023-11-19T02:41:04;99602.94;;;0.69;82.65
44697;BME280;57264;47.480;19.354;2023-11-19T02:43:33;99601.47;;;0.67;82.65
44697;BME280;57264;47.480;19.354;2023-11-19T02:46:05;99598.09;;;0.95;82.72
44697;BME280;57264;47.480;19.354;2023-11-19T02:48:34;99595.78;;;0.92;82.34
44697;BME280;57264;47.480;19.354;2023-11-19T02:51:04;99590.88;;;0.89;81.81
44697;BME280;57264;47.480;19.354;2023-11-19T02:53:30;99583.00;;;0.90;80.95
44697;BME280;57264;47.480;19.354;2023-11-19T02:55:57;99565.97;;;0.78;80.67
44697;BME280;57264;47.480;19.354;2023-11-19T02:58:44;99554.53;;;0.81;80.62
44697;BME280;57264;47.480;19.354;2023-11-19T03:01:10;99562.00;;;0.65;81.04
44697;BME280;57264;47.480;19.354;2023-11-19T03:03:44;99552.78;;;0.72;80.65
44697;BME280;57264;47.480;19.354;2023-11-19T03:06:14;99549.66;;;0.87;81.07
44697;BME280;57264;47.480;19.354;2023-11-19T03:08:40;99556.75;;;0.95;81.50
44697;BME280;57264;47.480;19.354;2023-11-19T03:11:05;99555.50;;;0.89;82.68
44697;BME280;57264;47.480;19.354;2023-11-19T03:13:31;99547.63;;;0.81;82.67
44697;BME280;57264;47.480;19.354;2023-11-19T03:15:56;99545.97;;;0.90;83.58
44697;BME280;57264;47.480;19.354;2023-11-19T03:18:22;99555.34;;;1.01;82.73
44697;BME280;57264;47.480;19.354;2023-11-19T03:20:47;99547.59;;;1.01;82.65
44697;BME280;57264;47.480;19.354;2023-11-19T03:23:13;99541.66;;;1.00;81.92
44697;BME280;57264;47.480;19.354;2023-11-19T03:25:39;99546.13;;;1.08;81.56
44697;BME280;57264;47.480;19.354;2023-11-19T03:28:04;99540.53;;;1.03;81.59
44697;BME280;57264;47.480;19.354;2023-11-19T03:30:31;99536.28;;;1.30;80.76
44697;BME280;57264;47.480;19.354;2023-11-19T03:32:57;99535.06;;;1.25;80.27
44697;BME280;57264;47.480;19.354;2023-11-19T03:35:23;99531.94;;;1.31;80.12
44697;BME280;57264;47.480;19.354;2023-11-19T03:37:50;99536.69;;;1.35;79.99
44697;BME280;57264;47.480;19.354;2023-11-19T03:40:16;99561.56;;;1.36;79.25
44697;BME280;57264;47.480;19.354;2023-11-19T03:42:42;99548.25;;;1.31;79.41
44697;BME280;57264;47.480;19.354;2023-11-19T03:45:08;99526.09;;;1.19;79.09
44697;BME280;57264;47.480;19.354;2023-11-19T03:47:37;99518.47;;;1.27;79.19
44697;BME280;57264;47.480;19.354;2023-11-19T03:50:04;99510.25;;;1.41;79.27
44697;BME280;57264;47.480;19.354;2023-11-19T03:52:30;99490.63;;;1.49;80.00
44697;BME280;57264;47.480;19.354;2023-11-19T03:54:56;99488.38;;;1.26;80.77
44697;BME280;57264;47.480;19.354;2023-11-19T03:57:22;99491.53;;;1.20;81.14
44697;BME280;57264;47.480;19.354;2023-11-19T03:59:48;99492.06;;;1.24;80.81
44697;BME280;57264;47.480;19.354;2023-11-19T04:02:14;99479.00;;;1.25;80.74
44697;BME280;57264;47.480;19.354;2023-11-19T04:04:40;99485.66;;;1.28;80.98
44697;BME280;57264;47.480;19.354;2023-11-19T04:07:05;99486.38;;;1.20;80.19
44697;BME280;57264;47.480;19.354;2023-11-19T04:09:31;99488.25;;;1.28;80.88
44697;BME280;57264;47.480;19.354;2023-11-19T04:11:59;99478.41;;;1.41;80.13
44697;BME280;57264;47.480;19.354;2023-11-19T04:14:24;99472.41;;;1.40;80.25
44697;BME280;57264;47.480;19.354;2023-11-19T04:16:50;99465.03;;;1.46;79.83
44697;BME280;57264;47.480;19.354;2023-11-19T04:19:17;99459.75;;;1.37;79.51
44697;BME280;57264;47.480;19.354;2023-11-19T04:21:42;99457.91;;;1.57;79.35
44697;BME280;57264;47.480;19.354;2023-11-19T04:24:09;99469.88;;;1.68;78.97
44697;BME280;57264;47.480;19.354;2023-11-19T04:26:44;99473.22;;;1.78;78.77
44697;BME280;57264;47.480;19.354;2023-11-19T04:29:14;99473.38;;;1.76;79.20
44697;BME280;57264;47.480;19.354;2023-11-19T04:31:41;99462.25;;;1.66;78.76
44697;BME280;57264;47.480;19.354;2023-11-19T04:34:07;99447.81;;;1.64;78.73
44697;BME280;57264;47.480;19.354;2023-11-19T04:36:33;99444.25;;;1.65;78.79
44697;BME280;57264;47.480;19.354;2023-11-19T04:38:59;99446.47;;;1.60;78.89
44697;BME280;57264;47.480;19.354;2023-11-19T04:41:25;99453.63;;;1.48;79.12
44697;BME280;57264;47.480;19.354;2023-11-19T04:43:53;99457.28;;;1.46;79.02
44697;BME280;57264;47.480;19.354;2023-11-19T04:46:19;99464.00;;;1.38;79.10
44697;BME280;57264;47.480;19.354;2023-11-19T04:48:45;99476.69;;;1.32;79.05
44697;BME280;57264;47.480;19.354;2023-11-19T04:51:10;99486.09;;;1.23;78.98
44697;BME280;57264;47.480;19.354;2023-11-19T04:53:36;99490.31;;;1.15;79.28
44697;BME280;57264;47.480;19.354;2023-11-19T04:56:15;99494.50;;;1.25;79.25
44697;BME280;57264;47.480;19.354;2023-11-19T04:58:45;99493.31;;;1.20;79.70
44697;BME280;57264;47.480;19.354;2023-11-19T05:01:14;99492.84;;;1.34;79.24
44697;BME280;57264;47.480;19.354;2023-11-19T05:03:42;99496.97;;;1.27;79.97
44697;BME280;57264;47.480;19.354;2023-11-19T05:06:07;99497.75;;;1.37;79.96
44697;BME280;57264;47.480;19.354;2023-11-19T05:08:33;99496.53;;;1.31;80.03
44697;BME280;57264;47.480;19.354;2023-11-19T05:10:58;99493.81;;;1.33;80.47
44697;BME280;57264;47.480;19.354;2023-11-19T05:13:24;99496.38;;;1.33;80.42
44697;BME280;57264;47.480;19.354;2023-11-19T05:15:50;99489.16;;;1.36;80.11
44697;BME280;57264;47.480;19.354;2023-11-19T05:18:15;99495.84;;;1.39;80.31
44697;BME280;57264;47.480;19.354;2023-11-19T05:20:41;99498.44;;;1.39;80.30
44697;BME280;57264;47.480;19.354;2023-11-19T05:23:06;99510.00;;;1.35;79.76
44697;BME280;57264;47.480;19.354;2023-11-19T05:25:32;99505.97;;;1.23;79.77
44697;BME280;57264;47.480;19.354;2023-11-19T05:27:57;99504.59;;;1.28;80.10
44697;BME280;57264;47.480;19.354;2023-11-19T05:30:23;99497.22;;;1.33;80.17
44697;BME280;57264;47.480;19.354;2023-11-19T05:32:48;99483.84;;;1.38;80.41
44697;BME280;57264;47.480;19.354;2023-11-19T05:35:14;99489.03;;;1.38;80.58
44697;BME280;57264;47.480;19.354;2023-11-19T05:37:40;99491.19;;;1.42;80.74
44697;BME280;57264;47.480;19.354;2023-11-19T05:40:06;99500.72;;;1.52;80.96
44697;BME280;57264;47.480;19.354;2023-11-19T05:42:42;99493.31;;;1.57;80.64
44697;BME280;57264;47.480;19.354;2023-11-19T05:45:09;99489.75;;;1.67;81.24
44697;BME280;57264;47.480;19.354;2023-11-19T05:47:35;99500.84;;;1.77;81.38
44697;BME280;57264;47.480;19.354;2023-11-19T05:50:01;99496.78;;;1.75;81.33
44697;BME280;57264;47.480;19.354;2023-11-19T05:52:26;99496.31;;;1.89;81.42
44697;BME280;57264;47.480;19.354;2023-11-19T05:54:53;99490.38;;;1.79;81.37
44697;BME280;57264;47.480;19.354;2023-11-19T05:57:19;99484.91;;;1.82;81.53
44697;BME280;57264;47.480;19.354;2023-11-19T05:59:50;99491.22;;;1.97;81.40
44697;BME280;57264;47.480;19.354;2023-11-19T06:02:16;99491.53;;;1.94;81.83
44697;BME280;57264;47.480;19.354;2023-11-19T06:04:41;99500.19;;;2.03;81.88
44697;BME280;57264;47.480;19.354;2023-11-19T06:07:09;99490.44;;;2.14;81.65
44697;BME280;57264;47.480;19.354;2023-11-19T06:09:35;99489.53;;;2.06;81.68
44697;BME280;57264;47.480;19.354;2023-11-19T06:12:01;99496.59;;;2.13;81.39
44697;BME280;57264;47.480;19.354;2023-11-19T06:14:31;99492.38;;;2.12;81.26
44697;BME280;57264;47.480;19.354;2023-11-19T06:16:57;99486.38;;;2.12;81.59
44697;BME280;57264;47.480;19.354;2023-11-19T06:19:22;99467.63;;;2.27;81.37
44697;BME280;57264;47.480;19.354;2023-11-19T06:21:50;99475.09;;;2.30;81.16
44697;BME280;57264;47.480;19.354;2023-11-19T06:24:15;99466.34;;;2.31;81.22
44697;BME280;57264;47.480;19.354;2023-11-19T06:26:41;99461.69;;;2.35;80.92
44697;BME280;57264;47.480;19.354;2023-11-19T06:29:06;99461.91;;;2.24;81.46
44697;BME280;57264;47.480;19.354;2023-11-19T06:31:32;99472.78;;;2.27;81.59
44697;BME280;57264;47.480;19.354;2023-11-19T06:33:58;99462.44;;;2.27;81.50
44697;BME280;57264;47.480;19.354;2023-11-19T06:36:23;99457.78;;;2.31;81.44
44697;BME280;57264;47.480;19.354;2023-11-19T06:38:49;99461.56;;;2.37;81.66
44697;BME280;57264;47.480;19.354;2023-11-19T06:41:14;99453.63;;;2.38;81.67
44697;BME280;57264;47.480;19.354;2023-11-19T06:43:40;99449.03;;;2.50;81.77
44697;BME280;57264;47.480;19.354;2023-11-19T06:46:05;99441.69;;;2.63;80.66
44697;BME280;57264;47.480;19.354;2023-11-19T06:48:34;99446.81;;;2.72;81.16
44697;BME280;57264;47.480;19.354;2023-11-19T06:51:00;99448.13;;;2.76;80.53
44697;BME280;57264;47.480;19.354;2023-11-19T06:53:25;99447.38;;;2.84;80.44
44697;BME280;57264;47.480;19.354;2023-11-19T06:55:54;99443.19;;;2.91;80.18
44697;BME280;57264;47.480;19.354;2023-11-19T06:58:19;99432.75;;;3.01;80.26
44697;BME280;57264;47.480;19.354;2023-11-19T07:00:45;99431.97;;;3.08;79.62
44697;BME280;57264;47.480;19.354;2023-11-19T07:03:12;99429.13;;;3.19;79.33
44697;BME280;57264;47.480;19.354;2023-11-19T07:05:38;99442.94;;;3.28;79.04
44697;BME280;57264;47.480;19.354;2023-11-19T07:08:05;99432.88;;;3.59;78.40
44697;BME280;57264;47.480;19.354;2023-11-19T07:10:32;99429.00;;;3.63;77.64
44697;BME280;57264;47.480;19.354;2023-11-19T07:12:59;99430.22;;;3.85;76.88
44697;BME280;57264;47.480;19.354;2023-11-19T07:15:24;99423.91;;;3.95;76.06
44697;BME280;57264;47.480;19.354;2023-11-19T07:17:50;99423.31;;;4.25;75.30
44697;BME280;57264;47.480;19.354;2023-11-19T07:20:15;99421.88;;;4.31;74.80
44697;BME280;57264;47.480;19.354;2023-11-19T07:22:44;99413.41;;;4.61;73.85
44697;BME280;57264;47.480;19.354;2023-11-19T07:25:14;99431.63;;;4.69;72.73
44697;BME280;57264;47.480;19.354;2023-11-19T07:27:39;99429.84;;;4.70;72.38
44697;BME280;57264;47.480;19.354;2023-11-19T07:30:06;99433.59;;;4.67;72.24
44697;BME280;57264;47.480;19.354;2023-11-19T07:32:33;99434.53;;;4.75;72.33
44697;BME280;57264;47.480;19.354;2023-11-19T07:34:58;99431.59;;;4.78;72.46
44697;BME280;57264;47.480;19.354;2023-11-19T07:37:25;99429.66;;;4.88;72.09
44697;BME280;57264;47.480;19.354;2023-11-19T07:39:50;99424.97;;;4.67;72.55
44697;BME280;57264;47.480;19.354;2023-11-19T07:42:16;99430.97;;;4.67;72.08
44697;BME280;57264;47.480;19.354;2023-11-19T07:44:43;99429.81;;;4.78;72.19
44697;BME280;57264;47.480;19.354;2023-11-19T07:47:09;99443.66;;;4.70;72.04
44697;BME280;57264;47.480;19.354;2023-11-19T07:49:35;99450.31;;;4.81;72.60
44697;BME280;57264;47.480;19.354;2023-11-19T07:52:00;99446.22;;;4.95;72.44
44697;BME280;57264;47.480;19.354;2023-11-19T07:54:28;99447.34;;;5.16;71.39
44697;BME280;57264;47.480;19.354;2023-11-19T07:56:54;99451.63;;;4.85;71.40
44697;BME280;57264;47.480;19.354;2023-11-19T07:59:23;99454.22;;;4.85;71.88
44697;BME280;57264;47.480;19.354;2023-11-19T08:01:48;99455.53;;;4.81;71.16
44697;BME280;57264;47.480;19.354;2023-11-19T08:04:14;99448.69;;;4.88;72.17
44697;BME280;57264;47.480;19.354;2023-11-19T08:06:40;99424.63;;;4.86;72.09
44697;BME280;57264;47.480;19.354;2023-11-19T08:09:06;99411.44;;;4.96;71.84
44697;BME280;57264;47.480;19.354;2023-11-19T08:11:33;99402.97;;;5.02;72.58
44697;BME280;57264;47.480;19.354;2023-11-19T08:13:59;99401.53;;;4.99;72.08
44697;BME280;57264;47.480;19.354;2023-11-19T08:16:24;99385.31;;;4.89;71.30
44697;BME280;57264;47.480;19.354;2023-11-19T08:18:50;99371.63;;;4.87;71.96
44697;BME280;57264;47.480;19.354;2023-11-19T08:21:15;99370.81;;;4.87;72.02
44697;BME280;57264;47.480;19.354;2023-11-19T08:23:41;99366.06;;;5.06;71.44
44697;BME280;57264;47.480;19.354;2023-11-19T08:26:07;99352.94;;;4.84;71.15
44697;BME280;57264;47.480;19.354;2023-11-19T08:28:32;99350.25;;;4.61;73.81
44697;BME280;57264;47.480;19.354;2023-11-19T08:31:00;99347.72;;;4.92;74.48
44697;BME280;57264;47.480;19.354;2023-11-19T08:33:27;99335.69;;;4.91;74.72
44697;BME280;57264;47.480;19.354;2023-11-19T08:35:56;99326.44;;;4.88;73.56
44697;BME280;57264;47.480;19.354;2023-11-19T08:38:42;99338.63;;;4.96;74.47
44697;BME280;57264;47.480;19.354;2023-11-19T08:41:13;99338.47;;;4.89;73.19
44697;BME280;57264;47.480;19.354;2023-11-19T08:43:39;99319.97;;;4.84;74.19
44697;BME280;57264;47.480;19.354;2023-11-19T08:46:10;99357.75;;;5.50;72.71
44697;BME280;57264;47.480;19.354;2023-11-19T08:48:36;99351.03;;;5.33;71.94
44697;BME280;57264;47.480;19.354;2023-11-19T08:51:01;99346.63;;;4.78;71.71
44697;BME280;57264;47.480;19.354;2023-11-19T08:53:27;99350.50;;;4.82;71.84
44697;BME280;57264;47.480;19.354;2023-11-19T08:55:52;99367.25;;;4.80;72.02
44697;BME280;57264;47.480;19.354;2023-11-19T08:58:18;99345.03;;;4.69;72.61
44697;BME280;57264;47.480;19.354;2023-11-19T09:00:43;99353.47;;;4.63;72.35
44697;BME280;57264;47.480;19.354;2023-11-19T09:03:09;99370.72;;;4.56;73.25
44697;BME280;57264;47.480;19.354;2023-11-19T09:05:34;99358.53;;;4.40;72.64
44697;BME280;57264;47.480;19.354;2023-11-19T09:08:00;99354.94;;;4.57;72.71
44697;BME280;57264;47.480;19.354;2023-11-19T09:10:26;99363.25;;;4.37;72.16
44697;BME280;57264;47.480;19.354;2023-11-19T09:12:52;99372.34;;;4.33;72.90
44697;BME280;57264;47.480;19.354;2023-11-19T09:15:18;99390.34;;;4.34;73.01
44697;BME280;57264;47.480;19.354;2023-11-19T09:17:43;99382.88;;;4.39;73.38
44697;BME280;57264;47.480;19.354;2023-11-19T09:20:09;99371.69;;;4.55;73.56
44697;BME280;57264;47.480;19.354;2023-11-19T09:22:38;99373.63;;;4.61;73.15
44697;BME280;57264;47.480;19.354;2023-11-19T09:25:04;99392.13;;;4.58;74.16
44697;BME280;57264;47.480;19.354;2023-11-19T09:27:30;99394.09;;;4.72;74.29
44697;BME280;57264;47.480;19.354;2023-11-19T09:29:56;99402.38;;;4.67;73.37
44697;BME280;57264;47.480;19.354;2023-11-19T09:32:24;99377.50;;;4.81;72.90
44697;BME280;57264;47.480;19.354;2023-11-19T09:34:50;99375.56;;;4.59;72.64
44697;BME280;57264;47.480;19.354;2023-11-19T09:37:15;99378.16;;;4.59;73.11
44697;BME280;57264;47.480;19.354;2023-11-19T09:39:41;99372.97;;;4.67;73.14
44697;BME280;57264;47.480;19.354;2023-11-19T09:42:09;99366.47;;;4.71;72.81
44697;BME280;57264;47.480;19.354;2023-11-19T09:44:38;99350.38;;;4.76;72.40
44697;BME280;57264;47.480;19.354;2023-11-19T09:47:05;99352.19;;;4.59;72.75
44697;BME280;57264;47.480;19.354;2023-11-19T09:49:32;99347.91;;;4.82;72.87
44697;BME280;57264;47.480;19.354;2023-11-19T09:51:58;99349.78;;;5.12;71.76
44697;BME280;57264;47.480;19.354;2023-11-19T09:54:24;99348.63;;;5.15;71.65
44697;BME280;57264;47.480;19.354;2023-11-19T09:56:50;99347.16;;;5.21;71.13
44697;BME280;57264;47.480;19.354;2023-11-19T09:59:16;99344.22;;;5.24;70.52
44697;BME280;57264;47.480;19.354;2023-11-19T10:01:42;99339.09;;;5.38;71.01
44697;BME280;57264;47.480;19.354;2023-11-19T10:04:09;99343.53;;;5.30;71.12
44697;BME280;57264;47.480;19.354;2023-11-19T10:06:36;99327.69;;;5.08;70.57
44697;BME280;57264;47.480;19.354;2023-11-19T10:09:02;99322.00;;;5.05;71.06
44697;BME280;57264;47.480;19.354;2023-11-19T10:11:30;99320.44;;;5.27;70.23
44697;BME280;57264;47.480;19.354;2023-11-19T10:13:56;99307.94;;;5.22;70.65
44697;BME280;57264;47.480;19.354;2023-11-19T10:16:28;99297.84;;;5.27;71.05
44697;BME280;57264;47.480;19.354;2023-11-19T10:18:55;99293.97;;;5.23;70.57
44697;BME280;57264;47.480;19.354;2023-11-19T10:21:21;99282.50;;;5.40;70.49
44697;BME280;57264;47.480;19.354;2023-11-19T10:23:52;99288.81;;;5.69;70.14
44697;BME280;57264;47.480;19.354;2023-11-19T10:26:19;99279.19;;;5.46;70.35
44697;BME280;57264;47.480;19.354;2023-11-19T10:28:46;99281.41;;;5.57;70.27
44697;BME280;57264;47.480;19.354;2023-11-19T10:31:14;99288.81;;;5.38;70.43
44697;BME280;57264;47.480;19.354;2023-11-19T10:33:39;99286.69;;;5.49;69.95
44697;BME280;57264;47.480;19.354;2023-11-19T10:36:06;99297.13;;;5.41;70.08
44697;BME280;57264;47.480;19.354;2023-11-19T10:38:32;99293.88;;;5.39;69.97
44697;BME280;57264;47.480;19.354;2023-11-19T10:40:58;99293.66;;;5.49;70.34
44697;BME280;57264;47.480;19.354;2023-11-19T10:43:24;99294.25;;;5.59;69.19
44697;BME280;57264;47.480;19.354;2023-11-19T10:45:51;99302.94;;;5.74;70.06
44697;BME280;57264;47.480;19.354;2023-11-19T10:48:17;99302.25;;;5.57;70.76
44697;BME280;57264;47.480;19.354;2023-11-19T10:50:45;99303.03;;;5.58;70.35
44697;BME280;57264;47.480;19.354;2023-11-19T10:53:12;99299.09;;;5.62;69.41
44697;BME280;57264;47.480;19.354;2023-11-19T10:55:47;99302.94;;;5.74;69.92
44697;BME280;57264;47.480;19.354;2023-11-19T10:58:15;99295.13;;;5.74;69.89
44697;BME280;57264;47.480;19.354;2023-11-19T11:00:45;99279.69;;;5.95;70.08
44697;BME280;57264;47.480;19.354;2023-11-19T11:03:21;99280.06;;;5.92;68.91
44697;BME280;57264;47.480;19.354;2023-11-19T11:05:51;99267.78;;;6.01;69.16
44697;BME280;57264;47.480;19.354;2023-11-19T11:08:19;99264.53;;;5.99;69.45
44697;BME280;57264;47.480;19.354;2023-11-19T11:10:54;99256.25;;;5.95;69.59
44697;BME280;57264;47.480;19.354;2023-11-19T11:13:22;99256.78;;;5.91;69.76
44697;BME280;57264;47.480;19.354;2023-11-19T11:15:50;99247.91;;;5.77;69.89
44697;BME280;57264;47.480;19.354;2023-11-19T11:18:16;99239.16;;;5.70;70.38
44697;BME280;57264;47.480;19.354;2023-11-19T11:20:45;99240.63;;;5.73;70.15
44697;BME280;57264;47.480;19.354;2023-11-19T11:23:36;99228.97;;;5.83;70.71
44697;BME280;57264;47.480;19.354;2023-11-19T11:39:46;99213.47;;;5.90;70.24
44697;BME280;57264;47.480;19.354;2023-11-19T11:45:13;99211.97;;;5.95;70.47
44697;BME280;57264;47.480;19.354;2023-11-19T11:50:15;99198.50;;;6.06;70.13
44697;BME280;57264;47.480;19.354;2023-11-19T11:55:52;99184.78;;;6.13;70.26
44697;BME280;57264;47.480;19.354;2023-11-19T11:58:21;99182.22;;;5.90;70.69
44697;BME280;57264;47.480;19.354;2023-11-19T12:00:48;99186.31;;;5.84;70.75
44697;BME280;57264;47.480;19.354;2023-11-19T12:03:14;99185.47;;;5.92;71.05
44697;BME280;57264;47.480;19.354;2023-11-19T12:05:45;99182.69;;;5.93;71.08
44697;BME280;57264;47.480;19.354;2023-11-19T12:08:12;99172.97;;;5.87;71.17
44697;BME280;57264;47.480;19.354;2023-11-19T12:13:09;99158.34;;;5.78;71.92
44697;BME280;57264;47.480;19.354;2023-11-19T12:18:24;99155.38;;;6.19;70.51
44697;BME280;57264;47.480;19.354;2023-11-19T12:20:50;99154.69;;;6.25;70.41
44697;BME280;57264;47.480;19.354;2023-11-19T12:23:15;99146.22;;;6.23;70.79
44697;BME280;57264;47.480;19.354;2023-11-19T12:25:41;99143.88;;;6.28;70.37
44697;BME280;57264;47.480;19.354;2023-11-19T12:28:12;99129.69;;;6.45;70.16
44697;BME280;57264;47.480;19.354;2023-11-19T12:30:38;99119.88;;;6.47;69.27
44697;BME280;57264;47.480;19.354;2023-11-19T12:33:12;99135.13;;;6.65;69.61
44697;BME280;57264;47.480;19.354;2023-11-19T12:35:46;99135.41;;;6.70;69.10
44697;BME280;57264;47.480;19.354;2023-11-19T12:38:23;99129.78;;;6.87;68.63
44697;BME280;57264;47.480;19.354;2023-11-19T12:41:10;99128.38;;;7.06;67.53
44697;BME280;57264;47.480;19.354;2023-11-19T12:43:43;99124.06;;;6.77;67.42
44697;BME280;57264;47.480;19.354;2023-11-19T12:46:22;99123.63;;;6.74;68.30
44697;BME280;57264;47.480;19.354;2023-11-19T12:48:48;99111.34;;;6.53;68.80
44697;BME280;57264;47.480;19.354;2023-11-19T12:51:14;99106.66;;;6.48;68.42
44697;BME280;57264;47.480;19.354;2023-11-19T12:53:52;99096.63;;;6.67;67.70
44697;BME280;57264;47.480;19.354;2023-11-19T12:56:23;99090.97;;;6.63;68.74
44697;BME280;57264;47.480;19.354;2023-11-19T12:58:49;99077.88;;;6.56;68.07
44697;BME280;57264;47.480;19.354;2023-11-19T13:01:18;99076.72;;;6.80;67.61
44697;BME280;57264;47.480;19.354;2023-11-19T13:03:47;99076.84;;;6.72;67.63
44697;BME280;57264;47.480;19.354;2023-11-19T13:06:16;99073.56;;;6.49;68.09
44697;BME280;57264;47.480;19.354;2023-11-19T13:08:44;99063.97;;;6.35;68.66
44697;BME280;57264;47.480;19.354;2023-11-19T13:11:11;99058.97;;;6.33;68.93
44697;BME280;57264;47.480;19.354;2023-11-19T13:14:00;99062.41;;;6.55;68.38
44697;BME280;57264;47.480;19.354;2023-11-19T13:16:27;99060.56;;;6.34;68.78
44697;BME280;57264;47.480;19.354;2023-11-19T13:18:53;99059.03;;;6.40;69.09
44697;BME280;57264;47.480;19.354;2023-11-19T13:21:19;99044.25;;;6.47;68.29
44697;BME280;57264;47.480;19.354;2023-11-19T13:23:45;99042.78;;;6.38;68.39
44697;BME280;57264;47.480;19.354;2023-11-19T13:26:11;99048.97;;;6.37;69.27
44697;BME280;57264;47.480;19.354;2023-11-19T13:28:37;99049.19;;;6.56;69.15
44697;BME280;57264;47.480;19.354;2023-11-19T13:31:03;99057.78;;;6.36;69.08
44697;BME280;57264;47.480;19.354;2023-11-19T13:33:29;99061.19;;;6.36;69.71